Time;durP1;ratioP1;P1;durP2;ratioP2;P2;SDS_P1;SDS_P2;PMS_P1;PMS_P2;Temp;Humidity;BMP_temperature;BMP_pressure;BME280_temperature;BME280_humidity;BME280_pressure;Samples;Min_cycle;Max_cycle;Signal;HPM_P1;HPM_P2
2022/02/02 05:18:37;;;;;;;17.63;4.55;;;;;;;6.83;76.39;98895.41;2622175;46;20026;-68
2022/02/02 05:21:31;;;;;;;21.73;4.88;;;;;;;6.87;77.00;98904.59;2620912;47;20026;-68
2022/02/02 05:48:33;;;;;;;12.70;3.85;;;;;;;7.09;75.50;98899.63;2626195;54;20034;-70
2022/02/02 05:51:21;;;;;;;21.63;5.18;;;;;;;7.07;75.43;98899.81;2623040;47;20038;-68
2022/02/02 05:53:51;;;;;;;20.55;4.95;;;;;;;7.04;75.35;98904.56;2621787;54;20082;-69
2022/02/02 05:56:21;;;;;;;17.40;4.05;;;;;;;7.01;75.27;98905.72;2621444;54;20041;-67
2022/02/02 05:58:51;;;;;;;20.50;5.03;;;;;;;6.98;74.98;98902.59;2619346;54;20035;-70
2022/02/02 06:01:21;;;;;;;19.02;3.83;;;;;;;6.98;75.16;98902.59;2619555;54;20061;-68
2022/02/02 06:03:53;;;;;;;16.52;4.55;;;;;;;6.98;74.84;98899.97;2619605;39;20705;-68
2022/02/02 06:06:27;;;;;;;20.60;4.60;;;;;;;6.97;74.95;98911.47;2618454;54;20057;-68
2022/02/02 06:08:57;;;;;;;20.98;4.60;;;;;;;6.93;74.90;98921.50;2618769;54;20074;-68
2022/02/02 06:11:28;;;;;;;17.40;3.80;;;;;;;6.90;74.97;98927.13;2618874;54;20046;-68
2022/02/02 06:13:59;;;;;;;17.70;4.15;;;;;;;6.89;74.79;98936.78;2620038;54;20045;-70
2022/02/02 06:16:31;;;;;;;15.90;4.32;;;;;;;6.91;74.80;98940.06;2620195;54;20066;-70
2022/02/02 06:19:01;;;;;;;23.02;4.82;;;;;;;6.90;74.73;98942.88;2619741;54;20026;-70
2022/02/02 06:21:35;;;;;;;16.23;4.22;;;;;;;6.90;74.82;98956.03;2619846;54;20045;-69
2022/02/02 06:24:10;;;;;;;18.30;4.43;;;;;;;6.90;75.00;98961.28;2619880;54;20038;-69
2022/02/02 06:26:43;;;;;;;21.02;5.05;;;;;;;6.93;74.73;98963.56;2620128;54;20031;-69
2022/02/02 06:29:14;;;;;;;25.52;5.38;;;;;;;6.95;74.64;98964.22;2621058;39;20470;-70
2022/02/02 06:31:46;;;;;;;20.17;4.35;;;;;;;6.94;74.86;98958.16;2618204;54;20034;-70
2022/02/02 06:34:17;;;;;;;19.63;5.00;;;;;;;6.97;75.09;98964.88;2618603;47;20022;-68
2022/02/02 06:36:51;;;;;;;17.55;3.88;;;;;;;7.00;74.79;98963.72;2618212;47;20027;-69
2022/02/02 06:39:20;;;;;;;15.77;4.00;;;;;;;7.05;74.48;98971.94;2617872;47;20037;-69
2022/02/02 06:41:54;;;;;;;14.45;4.95;;;;;;;7.05;74.54;98977.19;2618779;54;20037;-71
2022/02/02 06:44:24;;;;;;;16.55;4.85;;;;;;;7.07;74.26;98981.28;2618010;47;20034;-69
2022/02/02 06:46:54;;;;;;;18.88;4.28;;;;;;;7.08;74.23;98988.19;2618319;54;20030;-69
2022/02/02 06:49:23;;;;;;;19.10;4.53;;;;;;;7.13;73.55;98995.56;2618191;54;20030;-69
2022/02/02 06:52:07;;;;;;;14.90;3.60;;;;;;;7.15;73.55;98997.06;2617778;47;20026;-69
2022/02/02 06:54:49;;;;;;;14.80;4.15;;;;;;;7.16;73.71;99000.50;2618414;54;20038;-70
2022/02/02 06:57:37;;;;;;;14.40;4.03;;;;;;;7.16;73.51;99009.22;2618106;54;20079;-70
2022/02/02 07:00:18;;;;;;;19.95;4.40;;;;;;;7.15;73.46;99022.53;2617821;54;20051;-69
2022/02/02 07:02:56;;;;;;;16.65;4.10;;;;;;;7.17;73.88;99026.63;2618191;54;20035;-69
2022/02/02 07:05:37;;;;;;;15.82;4.50;;;;;;;7.13;73.30;99024.50;2617622;46;20034;-69
2022/02/02 07:11:16;;;;;;;21.33;4.70;;;;;;;7.20;73.35;99039.44;2617383;54;20042;-68
2022/02/02 07:16:41;;;;;;;16.13;4.38;;;;;;;7.25;73.15;99035.50;2618539;54;20107;-70
2022/02/02 07:19:23;;;;;;;18.02;5.00;;;;;;;7.23;73.29;99040.94;2621480;46;20066;-71
2022/02/02 07:22:13;;;;;;;20.48;5.13;;;;;;;7.22;72.77;99041.09;2622852;54;20067;-70
2022/02/02 07:25:16;;;;;;;23.05;5.43;;;;;;;7.28;73.13;99053.59;2620273;47;20030;-69
2022/02/02 07:27:55;;;;;;;22.33;5.05;;;;;;;7.27;72.90;99065.91;2620502;54;20073;-69
2022/02/02 07:30:43;;;;;;;22.20;4.93;;;;;;;7.29;73.06;99065.75;2622112;47;20644;-70
2022/02/02 07:33:19;;;;;;;19.13;4.65;;;;;;;7.29;72.69;99049.97;2622064;54;20107;-69
2022/02/02 07:36:01;;;;;;;17.42;4.53;;;;;;;7.28;72.50;99051.78;2623450;54;20046;-71
2022/02/02 07:38:43;;;;;;;22.52;5.00;;;;;;;7.28;72.54;99050.97;2628671;39;20724;-71
2022/02/02 07:41:30;;;;;;;20.70;5.40;;;;;;;7.26;72.73;99048.47;2626911;54;20031;-71
2022/02/02 07:44:10;;;;;;;15.90;3.97;;;;;;;7.26;72.07;99043.22;2626987;54;20042;-70
2022/02/02 07:46:45;;;;;;;18.30;4.57;;;;;;;7.28;72.68;99048.31;2628048;47;20042;-70
2022/02/02 07:49:18;;;;;;;20.33;5.00;;;;;;;7.32;72.28;99058.34;2629056;54;20135;-69
2022/02/02 07:51:50;;;;;;;18.58;5.05;;;;;;;7.36;72.19;99066.72;2628542;54;20027;-71
2022/02/02 07:54:24;;;;;;;18.45;5.57;;;;;;;7.41;72.31;99067.06;2628395;54;20059;-70
2022/02/02 07:57:12;;;;;;;21.83;4.72;;;;;;;7.44;72.09;99062.28;2627599;54;20027;-69
2022/02/02 07:59:53;;;;;;;24.45;6.50;;;;;;;7.41;72.25;99065.25;2626376;54;20038;-70
2022/02/02 08:02:29;;;;;;;19.83;5.38;;;;;;;7.44;72.34;99066.72;2625787;54;20050;-71
2022/02/02 08:05:00;;;;;;;23.23;5.65;;;;;;;7.45;71.83;99063.09;2625697;54;20030;-70
2022/02/02 08:07:36;;;;;;;18.90;4.95;;;;;;;7.44;71.77;99062.28;2628069;54;20031;-71
2022/02/02 08:10:14;;;;;;;21.77;5.57;;;;;;;7.48;71.67;99068.03;2627284;54;20027;-72
2022/02/02 08:12:53;;;;;;;21.20;5.60;;;;;;;7.55;71.45;99071.66;2625825;46;20027;-71
2022/02/02 08:15:25;;;;;;;25.60;5.75;;;;;;;7.59;70.94;99078.22;2626918;54;20038;-70
2022/02/02 08:17:56;;;;;;;18.75;5.03;;;;;;;7.62;70.77;99069.97;2624854;54;20045;-70
2022/02/02 08:20:26;;;;;;;22.27;5.80;;;;;;;7.65;70.92;99084.63;2624423;54;20034;-71
2022/02/02 08:22:56;;;;;;;25.40;5.70;;;;;;;7.70;70.51;99079.66;2624038;54;20030;-72
2022/02/02 08:25:28;;;;;;;26.60;5.47;;;;;;;7.79;70.75;99091.00;2625248;54;20037;-70
2022/02/02 08:28:04;;;;;;;24.98;5.90;;;;;;;7.79;70.32;99086.56;2624703;54;20035;-70
2022/02/02 08:30:35;;;;;;;19.77;5.85;;;;;;;7.84;70.03;99097.44;2624408;54;20034;-71
2022/02/02 08:33:12;;;;;;;26.73;6.13;;;;;;;7.89;70.19;99084.56;2624967;54;20046;-70
2022/02/02 08:35:47;;;;;;;21.52;6.28;;;;;;;7.93;70.40;99082.44;2626439;54;20038;-70
2022/02/02 08:38:30;;;;;;;20.88;5.15;;;;;;;7.93;70.22;99088.50;2623789;54;20122;-68
2022/02/02 08:41:04;;;;;;;16.48;4.30;;;;;;;7.94;70.00;99086.69;2623630;47;20034;-70
2022/02/02 08:43:40;;;;;;;21.98;5.40;;;;;;;7.94;70.08;99090.16;2624344;54;20554;-70
2022/02/02 08:46:19;;;;;;;32.35;5.72;;;;;;;7.93;70.42;99087.69;2623587;54;20034;-72
2022/02/02 08:48:52;;;;;;;16.42;4.85;;;;;;;7.88;70.21;99093.47;2624146;54;20031;-70
2022/02/02 08:51:25;;;;;;;25.40;5.28;;;;;;;7.87;70.32;99086.53;2624442;54;20086;-71
2022/02/02 08:54:06;;;;;;;15.85;5.10;;;;;;;7.91;70.43;99082.56;2622792;47;20038;-67
2022/02/02 09:02:30;;;;;;;19.00;4.72;;;;;;;8.04;70.18;99100.50;2623426;54;20054;-69
2022/02/02 09:07:56;;;;;;;21.05;4.75;;;;;;;8.13;70.04;99101.28;2624890;54;20086;-70
2022/02/02 09:24:20;;;;;;;21.58;5.60;;;;;;;8.49;69.15;99100.84;2625826;54;20026;-69
2022/02/02 09:34:59;;;;;;;23.00;7.28;;;;;;;8.69;68.13;99117.88;2626478;54;20046;-69
2022/02/02 09:37:29;;;;;;;26.50;8.68;;;;;;;8.65;68.05;99124.47;2623755;54;20039;-69
2022/02/02 09:40:11;;;;;;;19.75;8.23;;;;;;;8.75;68.00;99127.75;2625752;54;20063;-71
2022/02/02 09:42:41;;;;;;;21.30;6.47;;;;;;;8.79;67.67;99142.22;2625408;54;20034;-70
2022/02/02 09:45:14;;;;;;;29.05;7.90;;;;;;;8.77;67.25;99153.91;2626072;54;20445;-70
2022/02/02 09:47:55;;;;;;;24.73;7.20;;;;;;;8.76;67.51;99158.38;2625829;54;20035;-71
2022/02/02 09:50:31;;;;;;;29.05;6.00;;;;;;;8.79;67.80;99171.22;2626308;54;20546;-70
2022/02/02 09:53:03;;;;;;;25.05;7.03;;;;;;;8.80;67.42;99170.22;2625347;54;20026;-69
2022/02/02 09:55:51;;;;;;;24.00;6.90;;;;;;;8.77;67.25;99175.81;2625291;54;20029;-70
2022/02/02 09:58:44;;;;;;;20.60;6.78;;;;;;;8.79;66.96;99179.13;2625884;54;20026;-71
2022/02/02 10:04:32;;;;;;;25.15;8.90;;;;;;;8.96;66.67;99189.59;2625313;47;20046;-70
2022/02/02 10:07:35;;;;;;;25.10;7.43;;;;;;;8.98;65.98;99192.84;2625012;54;20034;-70
2022/02/02 10:10:36;;;;;;;25.52;8.38;;;;;;;9.00;66.29;99189.06;2625873;54;20037;-70
2022/02/02 10:13:24;;;;;;;28.50;7.53;;;;;;;9.09;65.94;99193.28;2625269;39;20407;-71
2022/02/02 10:15:58;;;;;;;21.73;6.00;;;;;;;9.15;65.98;99197.88;2621038;54;20117;-70
2022/02/02 10:18:31;;;;;;;25.05;7.35;;;;;;;9.23;65.59;99194.38;2621073;47;20050;-73
2022/02/02 10:21:04;;;;;;;21.77;6.40;;;;;;;9.27;65.50;99195.69;2623182;54;20137;-69
2022/02/02 10:23:35;;;;;;;20.42;5.60;;;;;;;9.24;65.89;99193.38;2623189;46;20046;-69
2022/02/02 10:26:20;;;;;;;19.67;5.78;;;;;;;9.21;65.78;99203.47;2621713;54;20039;-69
2022/02/02 10:28:57;;;;;;;24.08;6.45;;;;;;;9.15;65.84;99205.81;2622367;54;20045;-70
2022/02/02 10:31:40;;;;;;;27.08;5.65;;;;;;;9.01;66.04;99209.16;2623585;54;20046;-70
2022/02/02 10:34:16;;;;;;;20.63;5.38;;;;;;;8.90;65.84;99213.03;2624419;54;20037;-71
2022/02/02 10:37:18;;;;;;;24.58;6.15;;;;;;;8.81;66.43;99206.13;2622977;54;20557;-72
2022/02/02 10:39:50;;;;;;;20.08;5.88;;;;;;;8.78;66.85;99206.47;2622143;54;20030;-71
2022/02/02 10:42:39;;;;;;;19.85;4.75;;;;;;;8.76;66.59;99211.09;2623965;31;20598;-71
2022/02/02 10:45:20;;;;;;;28.98;7.38;;;;;;;8.84;66.55;99212.88;2621654;54;20050;-69
2022/02/02 10:47:58;;;;;;;27.10;8.55;;;;;;;8.87;66.74;99221.25;2621622;54;20041;-69
2022/02/02 10:50:34;;;;;;;65.93;24.65;;;;;;;8.96;66.34;99219.41;2623005;54;20026;-69
2022/02/02 10:56:18;;;;;;;20.80;5.68;;;;;;;9.20;66.42;99215.84;2619500;54;20049;-68
2022/02/02 10:59:25;;;;;;;21.45;5.43;;;;;;;9.21;66.14;99214.81;2622191;54;20074;-72
2022/02/02 11:07:29;;;;;;;18.98;5.50;;;;;;;9.08;66.11;99206.66;2618626;54;20081;-67
2022/02/02 11:10:01;;;;;;;18.85;5.10;;;;;;;9.09;66.50;99205.66;2619211;54;20038;-71
2022/02/02 11:12:32;;;;;;;21.45;5.07;;;;;;;9.18;66.52;99202.81;2620315;54;20086;-70
2022/02/02 11:15:10;;;;;;;17.33;5.47;;;;;;;9.28;66.46;99199.13;2620679;54;20549;-72
2022/02/02 11:17:50;;;;;;;20.70;5.25;;;;;;;9.31;66.28;99190.88;2622656;54;20034;-69
2022/02/02 11:20:21;;;;;;;18.25;5.18;;;;;;;9.31;66.19;99193.53;2623404;54;20038;-69
2022/02/02 11:22:52;;;;;;;17.77;4.93;;;;;;;9.27;66.16;99200.97;2622499;47;20056;-68
2022/02/02 11:25:36;;;;;;;19.67;5.20;;;;;;;9.31;66.09;99207.53;2621435;54;20054;-67
2022/02/02 11:28:22;;;;;;;11.27;3.93;;;;;;;9.39;66.08;99210.13;2621697;39;20512;-68
2022/02/02 11:30:52;;;;;;;20.33;5.10;;;;;;;9.33;65.79;99212.63;2621320;54;20280;-68
2022/02/02 11:33:26;;;;;;;20.92;6.00;;;;;;;9.37;65.75;99224.47;2619622;54;20042;-68
2022/02/02 11:35:59;;;;;;;;;;;;;;;9.35;66.07;99232.56;2621115;54;20044;-67
2022/02/02 11:38:39;;;;;;;23.17;5.93;;;;;;;9.39;66.48;99239.13;2621513;31;20481;-68
2022/02/02 11:44:19;;;;;;;24.90;5.25;;;;;;;9.33;65.69;99241.63;2621540;54;20030;-67
2022/02/02 11:46:54;;;;;;;23.17;6.03;;;;;;;9.42;65.67;99243.22;2622102;54;20052;-67
2022/02/02 11:49:35;;;;;;;15.95;4.75;;;;;;;9.56;65.51;99242.50;2622376;54;20030;-68
2022/02/02 11:52:05;;;;;;;15.82;4.00;;;;;;;9.57;65.24;99232.75;2622395;54;20037;-68
2022/02/02 11:54:49;;;;;;;19.13;6.07;;;;;;;9.65;64.96;99236.16;2621616;54;20082;-69
2022/02/02 11:57:25;;;;;;;30.08;7.45;;;;;;;9.69;65.69;99239.28;2621873;54;20039;-68
2022/02/02 12:00:18;;;;;;;21.17;4.93;;;;;;;9.75;65.47;99243.84;2622152;54;20065;-68
2022/02/02 12:03:12;;;;;;;14.88;5.03;;;;;;;9.71;65.30;99233.81;2622526;54;20130;-68
2022/02/02 12:08:57;;;;;;;16.65;4.95;;;;;;;9.34;65.88;99251.19;2621674;54;20046;-69
2022/02/02 12:45:31;;;;;;;22.15;4.10;;;;;;;8.58;71.07;99284.28;2619664;54;20031;-68
2022/02/02 12:48:02;;;;;;;20.42;5.20;;;;;;;8.55;71.25;99282.81;2620108;47;20139;-68
2022/02/02 12:56:23;;;;;;;15.27;5.38;;;;;;;8.88;71.92;99278.28;2623657;54;20022;-67
2022/02/02 12:58:53;;;;;;;16.33;5.80;;;;;;;8.96;72.03;99274.78;2626232;39;20423;-67
2022/02/02 13:01:23;;;;;;;13.85;4.38;;;;;;;8.98;72.20;99270.19;2623894;54;20043;-66
2022/02/02 13:03:53;;;;;;;11.55;4.63;;;;;;;8.98;72.61;99278.09;2622047;54;20069;-67
2022/02/02 13:06:25;;;;;;;11.02;4.10;;;;;;;9.03;72.65;99270.47;2620771;47;20026;-67
2022/02/02 13:08:55;;;;;;;13.18;3.67;;;;;;;9.04;72.15;99285.31;2621427;54;20042;-68
2022/02/02 13:11:31;;;;;;;10.27;3.45;;;;;;;9.05;72.18;99279.03;2620923;54;20030;-68
2022/02/02 13:14:05;;;;;;;10.38;3.58;;;;;;;9.02;72.45;99286.44;2621351;54;20518;-67
2022/02/02 13:16:40;;;;;;;9.00;3.03;;;;;;;8.97;72.45;99288.78;2622907;54;20027;-68
2022/02/02 13:19:18;;;;;;;8.80;3.78;;;;;;;8.96;72.20;99287.16;2624164;54;20033;-67
2022/02/02 13:21:56;;;;;;;7.82;3.30;;;;;;;8.92;72.74;99292.75;2623955;54;20030;-71
2022/02/02 13:24:36;;;;;;;10.98;3.72;;;;;;;8.88;72.58;99291.44;2621504;51;20089;-69
2022/02/02 13:27:15;;;;;;;11.30;4.18;;;;;;;8.90;72.27;99291.31;2621833;54;20041;-68
2022/02/02 13:29:48;;;;;;;11.10;4.25;;;;;;;8.87;72.76;99283.72;2622052;47;20063;-68
2022/02/02 13:32:27;;;;;;;14.35;5.28;;;;;;;8.76;73.07;99295.44;2622159;54;20037;-66
2022/02/02 13:35:13;;;;;;;11.23;4.05;;;;;;;8.66;73.45;99300.09;2622497;54;20597;-67
2022/02/02 13:37:52;;;;;;;13.05;4.57;;;;;;;8.58;73.70;99306.19;2623299;54;20062;-67
2022/02/02 13:46:11;;;;;;;11.00;4.30;;;;;;;8.53;74.44;99307.66;2623541;54;19938;-67
2022/02/02 13:52:08;;;;;;;10.48;4.20;;;;;;;8.61;74.40;99329.59;2622513;54;20046;-69
2022/02/02 13:55:23;;;;;;;14.30;4.25;;;;;;;8.71;74.30;99332.03;2623663;54;20143;-67
2022/02/02 13:58:28;;;;;;;8.18;4.03;;;;;;;8.70;74.46;99340.94;2622250;47;20041;-67
2022/02/02 14:01:04;;;;;;;10.02;3.65;;;;;;;8.71;74.50;99334.66;2622581;54;20031;-67
2022/02/02 14:06:35;;;;;;;8.18;2.90;;;;;;;8.72;74.42;99352.13;2621721;54;20030;-68
2022/02/02 14:09:08;;;;;;;7.25;3.20;;;;;;;8.73;74.62;99348.50;2621688;54;20034;-68
2022/02/02 14:31:11;;;;;;;10.93;4.25;;;;;;;8.71;75.42;99347.03;2622615;54;20059;-71
2022/02/02 14:33:54;;;;;;;8.77;3.30;;;;;;;8.68;75.74;99342.91;2623235;54;20034;-68
2022/02/02 14:36:27;;;;;;;9.63;3.63;;;;;;;8.61;75.86;99353.31;2623003;54;20034;-70
2022/02/02 14:39:04;;;;;;;10.30;3.97;;;;;;;8.60;76.12;99359.53;2623100;54;20070;-67
2022/02/02 14:41:39;;;;;;;13.35;3.72;;;;;;;8.59;76.12;99357.91;2622961;54;20559;-71
2022/02/02 14:44:16;;;;;;;8.93;3.80;;;;;;;8.56;76.36;99357.41;2623076;39;20463;-68
2022/02/02 14:47:10;;;;;;;9.48;3.55;;;;;;;8.57;76.48;99359.06;2622916;54;20030;-70
2022/02/02 14:49:47;;;;;;;8.32;3.13;;;;;;;8.52;77.02;99359.56;2623135;54;20034;-67
2022/02/02 14:52:26;;;;;;;7.78;3.67;;;;;;;8.56;77.08;99362.69;2623913;54;20034;-69
2022/02/02 15:27:55;;;;;;;5.10;2.53;;;;;;;8.37;77.91;99388.38;2619120;54;20086;-67
2022/02/02 15:30:30;;;;;;;4.40;2.00;;;;;;;8.36;78.24;99391.97;2619417;54;20067;-67
2022/02/02 15:33:03;;;;;;;3.15;1.98;;;;;;;8.35;78.40;99392.94;2620111;54;20034;-67
2022/02/02 15:35:36;;;;;;;5.30;2.42;;;;;;;8.34;78.02;99396.59;2620394;54;20034;-69
2022/02/02 15:38:14;;;;;;;8.30;2.67;;;;;;;8.38;78.17;99407.66;2622738;54;20082;-67
2022/02/02 15:40:50;;;;;;;5.07;2.35;;;;;;;8.37;78.33;99406.00;2623296;47;20039;-69
2022/02/02 16:00:28;;;;;;;14.70;3.42;;;;;;;8.55;80.21;99408.47;2618325;54;20039;-64
2022/02/02 16:03:09;;;;;;;5.35;3.80;;;;;;;8.60;79.90;99399.06;2618472;47;20038;-63
2022/02/02 16:05:44;;;;;;;4.03;3.05;;;;;;;8.54;79.38;99417.38;2618580;54;20045;-65
2022/02/02 16:08:18;;;;;;;4.50;2.47;;;;;;;8.48;79.86;99428.56;2618086;54;20063;-63
2022/02/02 16:11:00;;;;;;;;;;;;;;;8.35;79.93;99413.22;2618105;54;20542;-63
2022/02/02 16:13:34;;;;;;;6.75;3.17;;;;;;;8.37;80.34;99420.00;2617915;54;19946;-65
2022/02/02 16:16:12;;;;;;;;;;;;;;;8.33;80.33;99423.91;2617951;54;20593;-63
2022/02/02 16:18:47;;;;;;;6.45;3.95;;;;;;;8.33;80.31;99420.47;2617927;54;20442;-63
2022/02/02 16:32:47;;;;;;;9.57;6.60;;;;;;;8.31;80.87;99417.97;2621595;54;20039;-63
2022/02/02 16:35:38;;;;;;;10.40;6.60;;;;;;;8.32;81.03;99421.44;2622457;54;20027;-62
2022/02/02 16:38:13;;;;;;;8.32;6.43;;;;;;;8.33;81.13;99423.91;2622548;54;20034;-64
2022/02/02 16:40:49;;;;;;;11.88;7.50;;;;;;;8.29;81.17;99425.22;2621061;54;20022;-65
2022/02/02 16:43:18;;;;;;;13.20;7.03;;;;;;;8.31;80.98;99425.06;2622089;54;20030;-63
2022/02/02 16:45:52;;;;;;;5.68;4.78;;;;;;;8.32;81.03;99426.69;2622078;54;20522;-61
2022/02/02 16:48:23;;;;;;;7.07;4.00;;;;;;;8.29;81.03;99432.31;2621275;54;20071;-64
2022/02/02 16:50:56;;;;;;;10.82;6.47;;;;;;;8.31;81.06;99427.69;2621556;54;20058;-63
2022/02/02 16:53:39;;;;;;;7.15;5.53;;;;;;;8.36;81.27;99441.19;2621589;54;20046;-63
2022/02/02 16:56:23;;;;;;;4.65;3.75;;;;;;;8.34;80.92;99444.00;2620599;54;20022;-65
2022/02/02 17:31:51;;;;;;;5.70;4.10;;;;;;;8.47;80.76;99466.44;2618866;54;20027;-64
2022/02/02 17:34:26;;;;;;;7.20;3.90;;;;;;;8.47;80.99;99469.06;2619177;54;20026;-65
2022/02/02 17:37:06;;;;;;;8.57;5.60;;;;;;;8.51;80.55;99465.13;2618932;54;20027;-66
2022/02/02 17:39:45;;;;;;;8.18;4.15;;;;;;;8.44;80.15;99464.94;2618548;54;20045;-65
2022/02/02 17:45:38;;;;;;;16.60;11.27;;;;;;;8.46;80.45;99470.91;2617901;54;20031;-66
2022/02/02 17:56:52;;;;;;;9.68;6.22;;;;;;;8.49;80.14;99475.00;2619684;39;20451;-64
2022/02/02 18:17:04;;;;;;;8.95;6.45;;;;;;;8.53;80.44;99473.69;2619625;54;20087;-65
2022/02/02 18:19:12;;;;;;;39.25;26.15;;;;;;;8.55;80.06;99469.91;2618089;54;20026;-65
2022/02/02 18:21:42;;;;;;;78.60;42.60;;;;;;;8.53;80.40;99481.59;2618798;31;20512;-65
2022/02/02 18:24:17;;;;;;;34.47;24.15;;;;;;;8.53;79.87;99473.69;2618298;54;20030;-65
2022/02/02 18:26:52;;;;;;;13.30;9.48;;;;;;;8.50;80.26;99479.31;2618016;54;20057;-64
2022/02/02 18:29:28;;;;;;;8.20;5.68;;;;;;;8.48;79.95;99481.25;2623002;54;20045;-63
2022/02/02 18:32:14;;;;;;;8.90;5.65;;;;;;;8.46;80.58;99477.97;2625004;31;20554;-62
2022/02/02 18:34:49;;;;;;;9.70;6.47;;;;;;;8.42;80.45;99477.47;2621537;54;20038;-63
2022/02/02 18:49:18;;;;;;;5.43;4.55;;;;;;;8.38;80.22;99495.41;2618164;54;20046;-63
2022/02/02 18:54:41;;;;;;;6.18;4.32;;;;;;;8.38;80.41;99500.69;2618061;54;20051;-63
2022/02/02 18:57:27;;;;;;;6.72;5.40;;;;;;;8.43;80.62;99506.28;2618663;54;20846;-63
2022/02/02 19:00:13;;;;;;;8.48;5.35;;;;;;;8.42;80.43;99506.47;2619071;39;20461;-63
2022/02/02 19:05:51;;;;;;;6.78;4.00;;;;;;;8.49;80.69;99503.97;2618464;39;20457;-64
2022/02/02 20:06:02;;;;;;;9.55;6.80;;;;;;;8.73;79.81;99511.91;2617805;54;20057;-64
2022/02/02 20:08:41;;;;;;;11.05;7.00;;;;;;;8.69;79.64;99515.88;2619190;39;20752;-65
2022/02/02 20:11:20;;;;;;;9.90;7.20;;;;;;;8.68;80.14;99512.41;2618923;54;20030;-63
2022/02/02 20:13:50;;;;;;;17.80;12.30;;;;;;;8.72;79.91;99512.09;2618163;54;20059;-63
2022/02/02 20:16:19;;;;;;;12.57;9.15;;;;;;;8.73;80.08;99516.38;2618854;54;20878;-63
2022/02/02 20:18:52;;;;;;;7.38;6.53;;;;;;;8.68;79.95;99515.06;2618904;54;20070;-65
2022/02/02 20:21:24;;;;;;;8.63;6.38;;;;;;;8.70;80.32;99517.53;2618201;54;20078;-64
2022/02/02 20:23:54;;;;;;;16.25;14.60;;;;;;;8.73;80.03;99513.75;2618203;46;20166;-67
2022/02/02 20:26:28;;;;;;;10.77;7.10;;;;;;;8.77;79.67;99517.69;2618637;54;20031;-62
2022/02/02 20:28:59;;;;;;;10.43;7.63;;;;;;;8.76;79.77;99519.50;2619001;54;20042;-64
2022/02/02 20:31:29;;;;;;;8.45;6.88;;;;;;;8.77;80.13;99513.25;2618741;54;20038;-64
2022/02/02 20:33:59;;;;;;;9.07;7.55;;;;;;;8.79;80.04;99513.09;2619024;39;20431;-63
2022/02/02 20:36:28;;;;;;;9.35;7.18;;;;;;;8.81;80.36;99511.94;2618338;54;20035;-64
2022/02/02 20:38:58;;;;;;;11.20;7.93;;;;;;;8.80;80.14;99517.38;2618708;54;20046;-64
2022/02/02 20:41:33;;;;;;;9.77;7.13;;;;;;;8.85;80.28;99521.16;2618683;54;20538;-64
2022/02/02 20:44:15;;;;;;;13.57;8.48;;;;;;;8.80;80.43;99520.00;2621275;54;20042;-65
2022/02/02 20:47:06;;;;;;;13.07;9.80;;;;;;;8.79;80.09;99521.00;2621206;51;20034;-63
2022/02/02 21:00:45;;;;;;;10.27;7.90;;;;;;;8.79;80.68;99507.81;2618807;54;20542;-65
2022/02/02 21:03:37;;;;;;;11.30;8.60;;;;;;;8.80;80.33;99518.19;2618434;54;20570;-65
2022/02/02 21:06:20;;;;;;;11.15;8.43;;;;;;;8.76;80.88;99522.16;2618260;54;20725;-63
2022/02/02 21:09:08;;;;;;;11.57;9.48;;;;;;;8.78;80.77;99522.00;2618628;54;20042;-63
2022/02/02 21:11:54;;;;;;;13.68;9.45;;;;;;;8.83;80.70;99523.16;2618778;39;20403;-65
2022/02/02 21:14:26;;;;;;;11.45;9.10;;;;;;;8.75;80.52;99532.88;2618756;39;20454;-64
2022/02/02 21:16:57;;;;;;;15.02;9.73;;;;;;;8.76;80.74;99527.41;2618501;54;20053;-63
2022/02/02 21:19:36;;;;;;;10.45;8.20;;;;;;;8.67;80.88;99529.22;2618680;54;20034;-63
2022/02/02 21:22:08;;;;;;;11.15;9.07;;;;;;;8.66;81.39;99524.94;2618733;54;20553;-64
2022/02/02 21:24:52;;;;;;;10.18;8.25;;;;;;;8.58;81.04;99526.75;2618428;54;20039;-64
2022/02/02 21:27:26;;;;;;;;;;;;;;;8.58;81.42;99532.03;2618925;54;20602;-65
2022/02/02 21:29:59;;;;;;;12.52;9.50;;;;;;;8.64;81.34;99526.09;2618663;54;19938;-63
2022/02/02 21:32:29;;;;;;;14.98;10.15;;;;;;;8.70;81.72;99524.63;2619259;54;20562;-64
2022/02/02 21:35:04;;;;;;;12.52;8.90;;;;;;;8.71;81.75;99529.72;2622216;47;20042;-64
2022/02/02 21:37:35;;;;;;;11.68;7.88;;;;;;;8.71;81.76;99532.38;2622456;54;20030;-65
2022/02/02 21:40:17;;;;;;;11.90;9.82;;;;;;;8.70;81.76;99522.81;2621786;54;20082;-64
2022/02/02 21:42:48;;;;;;;12.25;10.55;;;;;;;8.72;81.68;99523.47;2622144;54;20088;-64
2022/02/02 21:45:21;;;;;;;16.52;12.10;;;;;;;8.71;81.90;99526.28;2621663;54;20030;-64
2022/02/02 21:47:51;;;;;;;10.35;9.18;;;;;;;8.66;81.60;99522.31;2622420;39;20450;-64
2022/02/02 21:50:21;;;;;;;14.75;11.73;;;;;;;8.72;81.77;99526.09;2621984;54;20026;-64
2022/02/02 21:52:52;;;;;;;12.05;10.27;;;;;;;8.75;81.64;99520.50;2620792;54;20026;-63
2022/02/02 21:55:22;;;;;;;16.20;11.57;;;;;;;8.70;81.69;99528.09;2619718;54;20074;-64
2022/02/02 21:57:51;;;;;;;13.63;10.57;;;;;;;8.70;82.09;99533.34;2619671;47;20037;-64
2022/02/02 22:00:23;;;;;;;13.43;11.02;;;;;;;8.76;82.34;99531.88;2619580;54;20046;-63
2022/02/02 22:02:53;;;;;;;15.35;10.75;;;;;;;8.84;81.67;99532.69;2619310;39;20098;-64
2022/02/02 22:05:23;;;;;;;13.45;11.00;;;;;;;8.84;82.15;99532.69;2618763;54;20093;-64
2022/02/02 22:07:52;;;;;;;15.55;11.25;;;;;;;8.89;81.69;99533.03;2618771;54;20046;-61
2022/02/02 22:10:22;;;;;;;14.65;11.45;;;;;;;8.92;81.67;99534.53;2618741;54;20584;-62
2022/02/02 22:12:52;;;;;;;14.63;10.63;;;;;;;8.95;81.63;99536.84;2618233;54;20042;-63
2022/02/02 22:15:28;;;;;;;11.45;9.85;;;;;;;8.95;81.59;99538.66;2618320;54;20034;-64
2022/02/02 22:17:57;;;;;;;11.80;9.65;;;;;;;8.93;81.63;99536.16;2617987;54;20578;-63
2022/02/02 22:20:29;;;;;;;12.68;10.15;;;;;;;8.90;81.64;99539.16;2618376;54;20554;-63
2022/02/02 22:22:59;;;;;;;12.00;10.13;;;;;;;8.87;81.63;99542.09;2618591;54;20089;-63
2022/02/02 22:25:28;;;;;;;14.32;10.80;;;;;;;8.80;82.06;99535.81;2617663;54;20034;-62
2022/02/02 22:27:58;;;;;;;14.05;10.10;;;;;;;8.77;81.76;99536.16;2618678;54;20062;-64
2022/02/02 22:30:30;;;;;;;13.50;10.93;;;;;;;8.76;82.05;99540.59;2618538;54;20034;-63
2022/02/02 22:33:00;;;;;;;18.83;13.25;;;;;;;8.74;81.92;99539.13;2618438;54;20043;-63
2022/02/02 22:35:29;;;;;;;13.50;11.10;;;;;;;8.76;81.96;99547.69;2617655;54;20081;-63
2022/02/02 22:37:59;;;;;;;14.18;11.13;;;;;;;8.77;82.27;99544.88;2618510;54;20050;-64
2022/02/02 22:40:28;;;;;;;15.35;10.88;;;;;;;8.67;82.45;99539.78;2618680;54;20080;-63
2022/02/02 22:42:58;;;;;;;13.95;10.88;;;;;;;8.65;82.50;99543.53;2620659;46;20616;-63
2022/02/02 22:45:32;;;;;;;15.02;11.52;;;;;;;8.67;82.65;99541.59;2619595;54;20030;-63
2022/02/02 22:48:02;;;;;;;14.23;10.70;;;;;;;8.68;82.71;99540.59;2618849;54;20102;-63
2022/02/02 22:50:31;;;;;;;11.52;10.07;;;;;;;8.67;83.02;99539.78;2618401;54;20631;-63
2022/02/02 22:53:01;;;;;;;13.02;10.15;;;;;;;8.70;82.96;99543.91;2617795;54;20122;-65
2022/02/02 22:55:30;;;;;;;13.15;10.48;;;;;;;8.62;82.68;99547.34;2618004;54;20052;-64
2022/02/02 22:58:00;;;;;;;12.65;10.48;;;;;;;8.60;82.78;99541.41;2617888;54;20022;-63
2022/02/02 23:03:29;;;;;;;14.63;11.13;;;;;;;8.68;83.24;99551.13;2613025;54;20070;-63
2022/02/02 23:06:01;;;;;;;14.57;10.70;;;;;;;8.69;83.30;99555.41;2618555;39;20449;-64
